createdAt,value
2019-03-01T16:45:56.405Z,831.84
2019-03-01T16:46:54.559Z,831.92
2019-03-01T16:47:54.472Z,831.87
2019-03-01T16:48:54.549Z,831.92
2019-03-01T16:49:54.509Z,831.94
2019-03-01T16:50:54.468Z,831.89
2019-03-01T16:51:54.799Z,831.87
2019-03-01T16:52:54.676Z,831.92
2019-03-01T16:53:54.481Z,832.00
2019-03-01T16:54:54.840Z,831.98
2019-03-01T16:55:54.840Z,831.93
2019-03-01T16:56:54.401Z,832.05
2019-03-01T16:58:06.051Z,832.03
2019-03-01T16:58:55.602Z,832.04
2019-03-01T16:59:54.368Z,832.05
2019-03-01T17:00:54.424Z,832.07
2019-03-01T17:01:54.363Z,832.06
2019-03-01T17:02:56.595Z,832.04
2019-03-01T17:03:54.509Z,832.11
2019-03-01T17:04:54.530Z,832.13
2019-03-01T17:05:55.133Z,832.17
2019-03-01T17:06:54.285Z,832.17
2019-03-01T17:07:54.251Z,832.10
2019-03-01T17:08:54.445Z,832.12
2019-03-01T17:09:55.032Z,832.13
2019-03-01T17:10:54.291Z,832.13
2019-03-01T17:11:54.350Z,832.19
2019-03-01T17:12:54.244Z,832.14
2019-03-01T17:13:54.156Z,832.15
2019-03-01T17:14:54.091Z,832.16
2019-03-01T17:15:54.160Z,832.18
2019-03-01T17:16:56.388Z,832.22
2019-03-01T17:17:55.168Z,832.24
2019-03-01T17:18:54.085Z,832.25
2019-03-01T17:19:54.080Z,832.22
2019-03-01T17:20:54.278Z,832.29
2019-03-01T17:21:54.126Z,832.28
2019-03-01T17:22:54.070Z,832.24
2019-03-01T17:23:54.682Z,832.34
2019-03-01T17:24:54.079Z,832.26
2019-03-01T17:25:53.967Z,832.28
2019-03-01T17:26:53.987Z,832.30
2019-03-01T17:27:54.132Z,832.25
2019-03-01T17:28:54.004Z,832.29
2019-03-01T17:29:53.929Z,832.33
2019-03-01T17:30:53.961Z,832.36
2019-03-01T17:31:53.951Z,832.32
2019-03-01T17:32:53.950Z,832.36
2019-03-01T17:33:53.969Z,832.36
2019-03-01T17:34:53.892Z,832.38
2019-03-01T17:35:53.932Z,832.37
2019-03-01T17:36:54.649Z,832.36
2019-03-01T17:37:53.847Z,832.37
2019-03-01T17:38:53.841Z,832.39
2019-03-01T17:39:56.533Z,832.36
2019-03-01T17:40:53.870Z,832.40
2019-03-01T17:41:53.815Z,832.37
2019-03-01T17:42:56.516Z,832.41
2019-03-01T17:43:53.847Z,832.49
2019-03-01T17:44:53.830Z,832.39
2019-03-01T17:45:54.488Z,832.42
2019-03-01T17:46:54.154Z,832.47
2019-03-01T17:47:55.506Z,832.45
2019-03-01T17:48:54.153Z,832.48
2019-03-01T17:49:53.717Z,832.46
2019-03-01T17:50:53.690Z,832.51
2019-03-01T17:51:56.556Z,832.54
2019-03-01T17:52:53.711Z,832.54
2019-03-01T17:53:53.696Z,832.57
2019-03-01T17:54:53.669Z,832.57
2019-03-01T17:55:53.676Z,832.57
2019-03-01T17:56:53.986Z,832.50
2019-03-01T17:57:53.678Z,832.48
2019-03-01T17:58:53.607Z,832.51
2019-03-01T17:59:55.619Z,832.54
2019-03-01T18:00:53.633Z,832.57
2019-03-01T18:01:53.594Z,832.53
2019-03-01T18:02:53.572Z,832.52
2019-03-01T18:03:53.653Z,832.60
2019-03-01T18:04:53.575Z,832.57
2019-03-01T18:05:53.556Z,832.64
2019-03-01T18:06:53.526Z,832.66
2019-03-01T18:07:53.522Z,832.61
2019-03-01T18:08:53.522Z,832.65
2019-03-01T18:09:55.310Z,832.69
2019-03-01T18:10:53.486Z,832.67
2019-03-01T18:11:53.523Z,832.68
2019-03-01T18:12:56.116Z,832.64
2019-03-01T18:13:53.446Z,832.70
2019-03-01T18:14:53.470Z,832.70
2019-03-01T18:15:53.550Z,832.67
2019-03-01T18:16:53.470Z,832.68
2019-03-01T18:17:53.438Z,832.72
2019-03-01T18:18:53.454Z,832.67
2019-03-01T18:19:53.402Z,832.76
2019-03-01T18:20:53.415Z,832.75
2019-03-01T18:21:53.431Z,832.77
2019-03-01T18:22:53.359Z,832.79
2019-03-01T18:23:53.356Z,832.83
2019-03-01T18:24:53.336Z,832.79
2019-03-01T18:25:53.322Z,832.80
2019-03-01T18:26:53.312Z,832.83
2019-03-01T18:27:53.905Z,832.84
2019-03-01T18:28:53.299Z,832.81
2019-03-01T18:29:53.296Z,832.89
2019-03-01T18:30:56.237Z,832.88
2019-03-01T18:31:53.246Z,832.89
2019-03-01T18:32:53.325Z,832.97
2019-03-01T18:33:53.713Z,832.97
2019-03-01T18:34:53.211Z,832.96
2019-03-01T18:35:55.726Z,832.96
2019-03-01T18:36:53.209Z,832.97
2019-03-01T18:37:55.104Z,833.00
2019-03-01T18:38:53.214Z,833.02
2019-03-01T18:39:53.329Z,833.07
2019-03-01T18:40:53.188Z,832.97
2019-03-01T18:41:53.169Z,833.02
2019-03-01T18:42:53.131Z,832.96
2019-03-01T18:43:53.133Z,833.01
2019-03-01T18:44:53.134Z,833.04
2019-03-01T18:45:53.131Z,833.05
2019-03-01T18:46:55.402Z,833.07
2019-03-01T18:47:53.088Z,833.07
2019-03-01T18:48:53.094Z,833.10
2019-03-01T18:49:55.289Z,833.10
2019-03-01T18:50:53.081Z,833.07
2019-03-01T18:51:53.081Z,833.05
2019-03-01T18:52:54.232Z,833.02
2019-03-01T18:53:53.027Z,833.06
2019-03-01T18:54:53.013Z,833.12
2019-03-01T18:55:53.746Z,833.12
2019-03-01T18:56:52.988Z,833.06
2019-03-01T18:57:53.051Z,833.10
2019-03-01T18:58:52.962Z,833.12
2019-03-01T18:59:52.936Z,833.12
2019-03-01T19:00:52.950Z,833.19
2019-03-01T19:01:52.930Z,833.15
2019-03-01T19:02:52.954Z,833.22
2019-03-01T19:03:53.076Z,833.24
2019-03-01T19:04:52.890Z,833.23
2019-03-01T19:05:52.891Z,833.18
2019-03-01T19:06:52.882Z,833.26
2019-03-01T19:07:52.869Z,833.28
2019-03-01T19:08:52.853Z,833.24
2019-03-01T19:09:53.255Z,833.23
2019-03-01T19:10:54.410Z,833.18
2019-03-01T19:11:52.832Z,833.22
2019-03-01T19:12:52.840Z,833.23
2019-03-01T19:13:52.834Z,833.28
2019-03-01T19:14:53.133Z,833.25
2019-03-01T19:15:54.590Z,833.23
2019-03-01T19:16:52.838Z,833.26
2019-03-01T19:17:52.758Z,833.29
2019-03-01T19:18:54.538Z,833.29
2019-03-01T19:19:52.730Z,833.31
2019-03-01T19:20:52.725Z,833.27
2019-03-01T19:21:53.484Z,833.29
2019-03-01T19:22:52.712Z,833.35
2019-03-01T19:23:52.683Z,833.38
2019-03-01T19:24:52.671Z,833.32
2019-03-01T19:25:52.642Z,833.36
2019-03-01T19:26:52.649Z,833.40
2019-03-01T19:27:52.677Z,833.36
2019-03-01T19:28:52.654Z,833.38
2019-03-01T19:29:52.717Z,833.43
2019-03-01T19:30:52.628Z,833.41
2019-03-01T19:31:52.602Z,833.36
2019-03-01T19:32:52.645Z,833.43
2019-03-01T19:33:52.633Z,833.44
2019-03-01T19:34:52.816Z,833.36
2019-03-01T19:35:52.538Z,833.38
2019-03-01T19:36:52.525Z,833.36
2019-03-01T19:37:52.552Z,833.42
2019-03-01T19:38:52.533Z,833.44
2019-03-01T19:39:52.554Z,833.45
2019-03-01T19:40:52.552Z,833.48
2019-03-01T19:41:54.580Z,833.48
2019-03-01T19:42:53.469Z,833.50
2019-03-01T19:43:57.404Z,833.52
2019-03-01T19:44:53.547Z,833.52
2019-03-01T19:45:52.618Z,833.53
2019-03-01T19:46:52.565Z,833.53
2019-03-01T19:47:52.457Z,833.53
2019-03-01T19:48:52.410Z,833.54
2019-03-01T19:49:52.393Z,833.60
2019-03-01T19:50:52.475Z,833.60
2019-03-01T19:51:52.370Z,833.60
2019-03-01T19:52:52.371Z,833.58
2019-03-01T19:53:52.408Z,833.59
2019-03-01T19:54:52.368Z,833.58
2019-03-01T19:55:52.323Z,833.57
2019-03-01T19:56:52.348Z,833.60
2019-03-01T19:57:52.401Z,833.58
2019-03-01T19:58:52.467Z,833.56
2019-03-01T19:59:52.274Z,833.59
2019-03-01T20:00:52.281Z,833.58
2019-03-01T20:01:52.599Z,833.63
2019-03-01T20:02:52.345Z,833.68
2019-03-01T20:03:52.236Z,833.69
2019-03-01T20:04:52.529Z,833.70
2019-03-01T20:05:52.255Z,833.69
2019-03-01T20:06:52.233Z,833.71
2019-03-01T20:07:54.685Z,833.72
2019-03-01T20:08:52.210Z,833.70
2019-03-01T20:09:52.630Z,833.69
2019-03-01T20:10:52.198Z,833.71
2019-03-01T20:11:52.176Z,833.62
2019-03-01T20:12:52.126Z,833.66
2019-03-01T20:13:53.700Z,833.68
2019-03-01T20:14:52.175Z,833.70
2019-03-01T20:15:52.120Z,833.69
2019-03-01T20:16:54.825Z,833.77
2019-03-01T20:17:53.093Z,833.70
2019-03-01T20:18:52.075Z,833.75
2019-03-01T20:19:53.581Z,833.76
2019-03-01T20:20:52.118Z,833.80
2019-03-01T20:21:52.076Z,833.79
2019-03-01T20:22:54.102Z,833.77
2019-03-01T20:23:52.030Z,833.79
2019-03-01T20:24:52.035Z,833.75
2019-03-01T20:25:52.004Z,833.73
2019-03-01T20:26:52.068Z,833.74
2019-03-01T20:27:51.968Z,833.76
2019-03-01T20:28:51.958Z,833.72
2019-03-01T20:29:52.483Z,833.74
2019-03-01T20:30:51.925Z,833.74
2019-03-01T20:31:51.925Z,833.67
2019-03-01T20:32:52.198Z,833.70
2019-03-01T20:33:51.895Z,833.73
2019-03-01T20:34:51.890Z,833.72
2019-03-01T20:35:51.893Z,833.73
2019-03-01T20:36:52.915Z,833.69
2019-03-01T20:37:51.895Z,833.72
2019-03-01T20:38:51.892Z,833.73
2019-03-01T20:39:52.090Z,833.72
2019-03-01T20:40:51.876Z,833.68
2019-03-01T20:41:53.057Z,833.69
2019-03-01T20:42:51.840Z,833.68
2019-03-01T20:43:51.837Z,833.73
2019-03-01T20:44:53.130Z,833.71
2019-03-01T20:45:51.793Z,833.74
2019-03-01T20:46:53.894Z,833.73
2019-03-01T20:47:53.500Z,833.74
2019-03-01T20:48:51.756Z,833.76
2019-03-01T20:49:52.443Z,833.79
2019-03-01T20:50:51.939Z,833.79
2019-03-01T20:51:52.378Z,833.82
2019-03-01T20:52:51.712Z,833.92
2019-03-01T20:53:51.679Z,833.91
2019-03-01T20:54:51.674Z,833.96
2019-03-01T20:55:51.655Z,833.95
2019-03-01T20:56:52.682Z,833.93
2019-03-01T20:57:51.671Z,833.93
2019-03-01T20:58:51.765Z,833.95
2019-03-01T20:59:51.667Z,833.92
2019-03-01T21:00:51.609Z,833.92
2019-03-01T21:01:51.608Z,833.91
2019-03-01T21:02:51.640Z,833.91
2019-03-01T21:03:51.566Z,833.93
2019-03-01T21:04:53.659Z,833.91
2019-03-01T21:05:51.597Z,833.90
2019-03-01T21:06:51.602Z,833.86
2019-03-01T21:07:53.835Z,833.89
2019-03-01T21:08:51.593Z,833.94
2019-03-01T21:09:51.496Z,833.94
2019-03-01T21:10:51.511Z,833.97
2019-03-01T21:11:51.494Z,834.06
2019-03-01T21:12:51.487Z,834.05
2019-03-01T21:13:51.510Z,834.06
2019-03-01T21:14:51.549Z,834.04
2019-03-01T21:15:53.194Z,834.05
2019-03-01T21:16:51.494Z,834.03
2019-03-01T21:17:53.056Z,833.98
2019-03-01T21:18:52.419Z,833.96
2019-03-01T21:19:51.409Z,834.01
2019-03-01T21:20:53.699Z,834.03
2019-03-01T21:21:51.389Z,834.09
2019-03-01T21:22:51.363Z,834.10
2019-03-01T21:23:51.856Z,834.06
2019-03-01T21:24:51.355Z,834.00
2019-03-01T21:25:51.332Z,834.02
2019-03-01T21:26:52.070Z,834.01
2019-03-01T21:27:51.416Z,834.07
2019-03-01T21:28:51.285Z,834.04
2019-03-01T21:29:51.283Z,834.06
2019-03-01T21:30:51.322Z,834.05
2019-03-01T21:31:51.310Z,834.06
2019-03-01T21:32:51.786Z,834.05
2019-03-01T21:33:51.319Z,834.09
2019-03-01T21:34:51.308Z,834.05
2019-03-01T21:35:52.031Z,834.10
2019-03-01T21:36:51.888Z,834.09
2019-03-01T21:37:51.232Z,834.14
2019-03-01T21:38:51.272Z,834.21
2019-03-01T21:39:51.195Z,834.21
2019-03-01T21:40:51.190Z,834.19
2019-03-01T21:41:51.394Z,834.18
2019-03-01T21:42:52.738Z,834.09
2019-03-01T21:43:51.150Z,834.17
2019-03-01T21:44:51.172Z,834.22
2019-03-01T21:45:51.120Z,834.25
2019-03-01T21:46:51.090Z,834.24
2019-03-01T21:47:51.116Z,834.17
2019-03-01T21:48:51.085Z,834.19
2019-03-01T21:49:51.082Z,834.17
2019-03-01T21:50:51.363Z,834.18
2019-03-01T21:51:51.759Z,834.17
2019-03-01T21:52:51.048Z,834.21
2019-03-01T21:53:51.045Z,834.21
2019-03-01T21:54:52.072Z,834.22
2019-03-01T21:55:51.005Z,834.24
2019-03-01T21:56:55.960Z,834.21
2019-03-01T21:57:51.995Z,834.24
2019-03-01T21:58:50.956Z,834.23
2019-03-01T21:59:52.484Z,834.25
2019-03-01T22:00:50.963Z,834.19
2019-03-01T22:01:52.722Z,834.22
2019-03-01T22:02:53.968Z,834.16
2019-03-01T22:03:51.058Z,834.13
2019-03-01T22:04:50.893Z,834.23
2019-03-01T22:05:50.886Z,834.15
2019-03-01T22:06:50.996Z,834.15
2019-03-01T22:07:50.925Z,834.20
2019-03-01T22:08:50.894Z,834.19
2019-03-01T22:09:50.872Z,834.20
2019-03-01T22:10:50.856Z,834.22
2019-03-01T22:11:50.918Z,834.26
2019-03-01T22:12:50.828Z,834.28
2019-03-01T22:13:50.827Z,834.22
2019-03-01T22:14:50.863Z,834.27
2019-03-01T22:15:50.773Z,834.29
2019-03-01T22:16:50.772Z,834.27
2019-03-01T22:17:50.756Z,834.32
2019-03-01T22:18:52.121Z,834.33
2019-03-01T22:19:52.245Z,834.32
2019-03-01T22:20:50.796Z,834.35
2019-03-01T22:21:50.772Z,834.37
2019-03-01T22:22:50.686Z,834.35
2019-03-01T22:23:52.583Z,834.37
2019-03-01T22:24:50.721Z,834.38
2019-03-01T22:25:50.678Z,834.35
2019-03-01T22:26:50.715Z,834.37
2019-03-01T22:27:51.642Z,834.36
2019-03-01T22:28:50.631Z,834.32
2019-03-01T22:29:52.674Z,834.34
2019-03-01T22:30:50.636Z,834.37
2019-03-01T22:31:50.658Z,834.31
2019-03-01T22:32:50.747Z,834.35
2019-03-01T22:33:52.590Z,834.30
2019-03-01T22:34:51.560Z,834.34
2019-03-01T22:35:50.642Z,834.36
2019-03-01T22:36:52.915Z,834.35
2019-03-01T22:37:50.559Z,834.32
2019-03-01T22:38:50.627Z,834.38
2019-03-01T22:39:51.495Z,834.34
2019-03-01T22:40:50.522Z,834.35
2019-03-01T22:41:50.524Z,834.32
2019-03-01T22:42:51.111Z,834.35
2019-03-01T22:43:50.573Z,834.36
2019-03-01T22:44:50.486Z,834.43
2019-03-01T22:45:50.455Z,834.44
2019-03-01T22:46:50.456Z,834.39
2019-03-01T22:47:50.450Z,834.40
2019-03-01T22:48:56.304Z,834.40
2019-03-01T22:49:51.454Z,834.41
2019-03-01T22:50:50.400Z,834.47
2019-03-01T22:51:53.014Z,834.33
2019-03-01T22:52:50.387Z,834.37
2019-03-01T22:53:50.360Z,834.35
2019-03-01T22:54:50.348Z,834.44
2019-03-01T22:55:50.375Z,834.33
2019-03-01T22:56:50.398Z,834.33
2019-03-01T22:57:50.323Z,834.35
2019-03-01T22:58:50.328Z,834.39
2019-03-01T22:59:50.321Z,834.42
2019-03-01T23:00:50.309Z,834.46
2019-03-01T23:01:50.333Z,834.47
2019-03-01T23:02:50.324Z,834.45
2019-03-01T23:03:51.569Z,834.44
2019-03-01T23:04:50.286Z,834.50
2019-03-01T23:05:50.323Z,834.43
2019-03-01T23:06:51.482Z,834.47
2019-03-01T23:07:50.353Z,834.47
2019-03-01T23:08:50.195Z,834.46
2019-03-01T23:09:50.204Z,834.49
2019-03-01T23:10:50.194Z,834.51
2019-03-01T23:11:50.177Z,834.49
2019-03-01T23:12:50.154Z,834.51
2019-03-01T23:13:52.832Z,834.45
2019-03-01T23:14:51.135Z,834.48
2019-03-01T23:15:50.151Z,834.46
2019-03-01T23:16:50.689Z,834.45
2019-03-01T23:17:50.111Z,834.41
2019-03-01T23:18:56.666Z,834.38
2019-03-01T23:19:51.617Z,834.38
2019-03-01T23:20:50.128Z,834.40
2019-03-01T23:21:50.042Z,834.35
2019-03-01T23:22:50.602Z,834.38
2019-03-01T23:23:50.114Z,834.38
2019-03-01T23:24:50.327Z,834.35
2019-03-01T23:25:51.014Z,834.40
2019-03-01T23:26:50.274Z,834.42
2019-03-01T23:27:50.391Z,834.40
2019-03-01T23:28:50.423Z,834.36
2019-03-01T23:29:53.861Z,834.39
2019-03-01T23:30:50.392Z,834.41
2019-03-01T23:31:50.209Z,834.40
2019-03-01T23:32:52.736Z,834.43
2019-03-01T23:33:50.310Z,834.40
2019-03-01T23:34:50.094Z,834.43
2019-03-01T23:35:53.040Z,834.48
2019-03-01T23:36:49.882Z,834.46
2019-03-01T23:37:49.925Z,834.50
2019-03-01T23:38:51.309Z,834.44
2019-03-01T23:39:50.357Z,834.47
2019-03-01T23:40:49.894Z,834.47
2019-03-01T23:41:50.051Z,834.49
2019-03-01T23:42:53.403Z,834.46
2019-03-01T23:43:51.969Z,834.45
2019-03-01T23:44:51.204Z,834.47
2019-03-01T23:45:53.789Z,834.48
2019-03-01T23:46:50.081Z,834.47
2019-03-01T23:47:50.048Z,834.48
2019-03-01T23:48:50.126Z,834.47
2019-03-01T23:49:50.129Z,834.50
2019-03-01T23:50:50.130Z,834.47
2019-03-01T23:51:49.891Z,834.51
2019-03-01T23:52:50.137Z,834.48
2019-03-01T23:53:50.009Z,834.48
2019-03-01T23:54:49.691Z,834.48
2019-03-01T23:55:50.924Z,834.47
2019-03-01T23:56:49.688Z,834.53
2019-03-01T23:57:49.971Z,834.51
2019-03-01T23:58:51.855Z,834.51
2019-03-01T23:59:49.950Z,834.50
